aviador You're here:

KMHT Decoded Metar

MANCHESTER in NH, USA
Report Time2018-05-23 15:53:00
UTC Time2018-05-23 16:49:13
Flight Rules vfr VFR
Wind280° at 07 kt
W.Decomp.*RWY 35: 4.1 kt HW 5.7 kt LCW
RWY 24: 3.9 kt HW 5.8 kt RCW
W.Rank280° ranks 11
Current wind is below 280° avg. (7.4)
Visibility9999 m
Phenomena:N/A
Clouds:Few 040 Hf
Few 250 Hf
Expected CloudBase > 5,200 ft AGL from Temp-Dew spread
CeilingNone
Temp24°C (ISA +10)
Dew Point11°C (44% RH)
AAT21.8°C
QNH1011 hPa
Density Alt1,617 ft
Elevation266 ft
Report Wrong Elevation
Raw Report
KMHT 231553Z 28007KT 10SM FEW040 FEW250 24/11 A2986 RMK AO2 SLP123
T02440111=

Extra information for KMHT:More info

Metar Taf Metar & Taf Last 4 Metars F.Rules Stats Wind Profile Meteogram Temp Stats Airport Information Weather charts Add Link Nearby VenuesMetar ALERT Operation Metar Decoded Social comments

AIRNAV info for KMHT